sensor_id;sensor_type;location;lat;lon;timestamp;temperature;humidity
75190;HTU21D;69198;44.694;37.790;2024-01-30T00:00:19;-0.65;80.38
75190;HTU21D;69198;44.694;37.790;2024-01-30T00:01:20;-0.68;79.14
75190;HTU21D;69198;44.694;37.790;2024-01-30T00:02:21;-0.68;79.91
75190;HTU21D;69198;44.694;37.790;2024-01-30T00:03:22;-0.68;79.72
75190;HTU21D;69198;44.694;37.790;2024-01-30T00:04:23;-0.71;79.82
75190;HTU21D;69198;44.694;37.790;2024-01-30T00:05:24;-0.68;80.09
75190;HTU21D;69198;44.694;37.790;2024-01-30T00:06:25;-0.69;80.94
75190;HTU21D;69198;44.694;37.790;2024-01-30T00:07:26;-0.67;81.38
75190;HTU21D;69198;44.694;37.790;2024-01-30T00:08:27;-0.65;81.17
75190;HTU21D;69198;44.694;37.790;2024-01-30T00:09:28;-0.66;80.94
75190;HTU21D;69198;44.694;37.790;2024-01-30T00:10:29;-0.61;81.75
75190;HTU21D;69198;44.694;37.790;2024-01-30T00:11:30;-0.60;81.51
75190;HTU21D;69198;44.694;37.790;2024-01-30T00:12:32;-0.58;81.03
75190;HTU21D;69198;44.694;37.790;2024-01-30T00:13:33;-0.64;79.75
75190;HTU21D;69198;44.694;37.790;2024-01-30T00:14:34;-0.73;79.98
75190;HTU21D;69198;44.694;37.790;2024-01-30T00:15:34;-0.69;80.58
75190;HTU21D;69198;44.694;37.790;2024-01-30T00:16:36;-0.61;80.66
75190;HTU21D;69198;44.694;37.790;2024-01-30T00:17:37;-0.68;78.98
75190;HTU21D;69198;44.694;37.790;2024-01-30T00:18:38;-0.73;79.12
75190;HTU21D;69198;44.694;37.790;2024-01-30T00:19:40;-0.70;81.11
75190;HTU21D;69198;44.694;37.790;2024-01-30T00:20:41;-0.61;81.97
75190;HTU21D;69198;44.694;37.790;2024-01-30T00:21:43;-0.59;81.24
75190;HTU21D;69198;44.694;37.790;2024-01-30T00:22:44;-0.64;80.64
75190;HTU21D;69198;44.694;37.790;2024-01-30T00:23:45;-0.62;81.55
75190;HTU21D;69198;44.694;37.790;2024-01-30T00:24:46;-0.61;81.75
75190;HTU21D;69198;44.694;37.790;2024-01-30T00:25:47;-0.66;81.76
75190;HTU21D;69198;44.694;37.790;2024-01-30T00:26:48;-0.59;81.64
75190;HTU21D;69198;44.694;37.790;2024-01-30T00:27:49;-0.62;81.10
75190;HTU21D;69198;44.694;37.790;2024-01-30T00:28:50;-0.67;80.32
75190;HTU21D;69198;44.694;37.790;2024-01-30T00:29:51;-0.65;81.25
75190;HTU21D;69198;44.694;37.790;2024-01-30T00:30:52;-0.61;81.88
75190;HTU21D;69198;44.694;37.790;2024-01-30T00:31:53;-0.60;81.00
75190;HTU21D;69198;44.694;37.790;2024-01-30T00:32:54;-0.62;80.66
75190;HTU21D;69198;44.694;37.790;2024-01-30T00:33:55;-0.65;81.20
75190;HTU21D;69198;44.694;37.790;2024-01-30T00:34:56;-0.62;82.11
75190;HTU21D;69198;44.694;37.790;2024-01-30T00:35:57;-0.57;82.08
75190;HTU21D;69198;44.694;37.790;2024-01-30T00:36:58;-0.56;81.46
75190;HTU21D;69198;44.694;37.790;2024-01-30T00:37:59;-0.59;80.50
75190;HTU21D;69198;44.694;37.790;2024-01-30T00:39:00;-0.68;80.43
75190;HTU21D;69198;44.694;37.790;2024-01-30T00:40:01;-0.64;81.00
75190;HTU21D;69198;44.694;37.790;2024-01-30T00:41:02;-0.65;80.81
75190;HTU21D;69198;44.694;37.790;2024-01-30T00:42:03;-0.65;80.70
75190;HTU21D;69198;44.694;37.790;2024-01-30T00:43:05;-0.61;81.46
75190;HTU21D;69198;44.694;37.790;2024-01-30T00:44:06;-0.59;81.52
75190;HTU21D;69198;44.694;37.790;2024-01-30T00:45:12;-0.55;80.35
75190;HTU21D;69198;44.694;37.790;2024-01-30T00:46:13;-0.58;79.65
75190;HTU21D;69198;44.694;37.790;2024-01-30T00:47:14;-0.60;79.75
75190;HTU21D;69198;44.694;37.790;2024-01-30T00:48:15;-0.55;80.74
75190;HTU21D;69198;44.694;37.790;2024-01-30T00:49:16;-0.55;80.16
75190;HTU21D;69198;44.694;37.790;2024-01-30T00:50:18;-0.56;80.62
75190;HTU21D;69198;44.694;37.790;2024-01-30T00:51:19;-0.51;81.15
75190;HTU21D;69198;44.694;37.790;2024-01-30T00:52:20;-0.49;79.88
75190;HTU21D;69198;44.694;37.790;2024-01-30T00:53:21;-0.53;79.11
75190;HTU21D;69198;44.694;37.790;2024-01-30T00:54:22;-0.54;79.95
75190;HTU21D;69198;44.694;37.790;2024-01-30T00:55:23;-0.53;79.72
75190;HTU21D;69198;44.694;37.790;2024-01-30T00:56:24;-0.54;79.88
75190;HTU21D;69198;44.694;37.790;2024-01-30T00:57:25;-0.50;80.64
75190;HTU21D;69198;44.694;37.790;2024-01-30T00:58:27;-0.46;80.91
75190;HTU21D;69198;44.694;37.790;2024-01-30T00:59:28;-0.43;80.59
75190;HTU21D;69198;44.694;37.790;2024-01-30T01:00:29;-0.46;79.91
75190;HTU21D;69198;44.694;37.790;2024-01-30T01:01:31;-0.45;80.65
75190;HTU21D;69198;44.694;37.790;2024-01-30T01:02:32;-0.40;81.23
75190;HTU21D;69198;44.694;37.790;2024-01-30T01:03:33;-0.37;79.99
75190;HTU21D;69198;44.694;37.790;2024-01-30T01:04:34;-0.42;79.92
75190;HTU21D;69198;44.694;37.790;2024-01-30T01:05:35;-0.39;81.37
75190;HTU21D;69198;44.694;37.790;2024-01-30T01:06:36;-0.32;81.63
75190;HTU21D;69198;44.694;37.790;2024-01-30T01:07:37;-0.36;80.46
75190;HTU21D;69198;44.694;37.790;2024-01-30T01:08:38;-0.40;80.35
75190;HTU21D;69198;44.694;37.790;2024-01-30T01:09:39;-0.45;80.37
75190;HTU21D;69198;44.694;37.790;2024-01-30T01:10:40;-0.41;81.30
75190;HTU21D;69198;44.694;37.790;2024-01-30T01:11:41;-0.39;81.46
75190;HTU21D;69198;44.694;37.790;2024-01-30T01:12:42;-0.35;81.28
75190;HTU21D;69198;44.694;37.790;2024-01-30T01:13:43;-0.36;80.96
75190;HTU21D;69198;44.694;37.790;2024-01-30T01:14:44;-0.34;80.77
75190;HTU21D;69198;44.694;37.790;2024-01-30T01:15:45;-0.39;80.59
75190;HTU21D;69198;44.694;37.790;2024-01-30T01:16:46;-0.42;80.61
75190;HTU21D;69198;44.694;37.790;2024-01-30T01:17:46;-0.38;80.72
75190;HTU21D;69198;44.694;37.790;2024-01-30T01:18:47;-0.31;80.36
75190;HTU21D;69198;44.694;37.790;2024-01-30T01:19:48;-0.34;79.99
75190;HTU21D;69198;44.694;37.790;2024-01-30T01:20:49;-0.39;79.14
75190;HTU21D;69198;44.694;37.790;2024-01-30T01:21:50;-0.39;79.72
75190;HTU21D;69198;44.694;37.790;2024-01-30T01:22:51;-0.39;80.41
75190;HTU21D;69198;44.694;37.790;2024-01-30T01:23:53;-0.35;78.09
75190;HTU21D;69198;44.694;37.790;2024-01-30T01:24:54;-0.35;79.16
75190;HTU21D;69198;44.694;37.790;2024-01-30T01:25:55;-0.31;79.63
75190;HTU21D;69198;44.694;37.790;2024-01-30T01:26:58;-0.26;79.46
75190;HTU21D;69198;44.694;37.790;2024-01-30T01:27:59;-0.32;79.18
75190;HTU21D;69198;44.694;37.790;2024-01-30T01:29:02;-0.35;79.76
75190;HTU21D;69198;44.694;37.790;2024-01-30T01:30:05;-0.28;80.30
75190;HTU21D;69198;44.694;37.790;2024-01-30T01:31:09;-0.29;79.53
75190;HTU21D;69198;44.694;37.790;2024-01-30T01:32:09;-0.28;79.71
75190;HTU21D;69198;44.694;37.790;2024-01-30T01:33:11;-0.28;80.48
75190;HTU21D;69198;44.694;37.790;2024-01-30T01:34:14;-0.27;80.43
75190;HTU21D;69198;44.694;37.790;2024-01-30T01:35:15;-0.27;80.31
75190;HTU21D;69198;44.694;37.790;2024-01-30T01:36:16;-0.29;80.47
75190;HTU21D;69198;44.694;37.790;2024-01-30T01:37:17;-0.31;79.85
75190;HTU21D;69198;44.694;37.790;2024-01-30T01:38:18;-0.38;79.76
75190;HTU21D;69198;44.694;37.790;2024-01-30T01:39:19;-0.36;80.30
75190;HTU21D;69198;44.694;37.790;2024-01-30T01:40:24;-0.35;80.53
75190;HTU21D;69198;44.694;37.790;2024-01-30T01:41:30;-0.35;80.46
75190;HTU21D;69198;44.694;37.790;2024-01-30T01:42:32;-0.32;79.96
75190;HTU21D;69198;44.694;37.790;2024-01-30T01:43:33;-0.36;79.86
75190;HTU21D;69198;44.694;37.790;2024-01-30T01:44:33;-0.43;79.52
75190;HTU21D;69198;44.694;37.790;2024-01-30T01:45:35;-0.38;80.94
75190;HTU21D;69198;44.694;37.790;2024-01-30T01:46:36;-0.31;80.59
75190;HTU21D;69198;44.694;37.790;2024-01-30T01:47:38;-0.36;79.73
75190;HTU21D;69198;44.694;37.790;2024-01-30T01:48:39;-0.44;79.39
75190;HTU21D;69198;44.694;37.790;2024-01-30T01:49:40;-0.44;79.87
75190;HTU21D;69198;44.694;37.790;2024-01-30T01:50:42;-0.37;79.35
75190;HTU21D;69198;44.694;37.790;2024-01-30T01:51:44;-0.40;78.79
75190;HTU21D;69198;44.694;37.790;2024-01-30T01:52:49;-0.47;78.41
75190;HTU21D;69198;44.694;37.790;2024-01-30T01:53:50;-0.47;79.41
75190;HTU21D;69198;44.694;37.790;2024-01-30T01:54:52;-0.44;79.46
75190;HTU21D;69198;44.694;37.790;2024-01-30T01:55:54;-0.34;79.59
75190;HTU21D;69198;44.694;37.790;2024-01-30T01:56:55;-0.39;79.10
75190;HTU21D;69198;44.694;37.790;2024-01-30T01:57:56;-0.35;80.27
75190;HTU21D;69198;44.694;37.790;2024-01-30T01:59:00;-0.28;80.25
75190;HTU21D;69198;44.694;37.790;2024-01-30T02:00:05;-0.30;79.66
75190;HTU21D;69198;44.694;37.790;2024-01-30T02:01:11;-0.31;79.79
75190;HTU21D;69198;44.694;37.790;2024-01-30T02:02:12;-0.31;79.64
75190;HTU21D;69198;44.694;37.790;2024-01-30T02:03:17;-0.29;79.09
75190;HTU21D;69198;44.694;37.790;2024-01-30T02:04:19;-0.28;79.01
75190;HTU21D;69198;44.694;37.790;2024-01-30T02:05:21;-0.29;79.15
75190;HTU21D;69198;44.694;37.790;2024-01-30T02:06:22;-0.35;78.18
75190;HTU21D;69198;44.694;37.790;2024-01-30T02:07:24;-0.43;78.18
75190;HTU21D;69198;44.694;37.790;2024-01-30T02:08:25;-0.37;78.86
75190;HTU21D;69198;44.694;37.790;2024-01-30T02:09:26;-0.31;79.21
75190;HTU21D;69198;44.694;37.790;2024-01-30T02:10:27;-0.37;78.49
75190;HTU21D;69198;44.694;37.790;2024-01-30T02:11:28;-0.39;78.09
75190;HTU21D;69198;44.694;37.790;2024-01-30T02:12:30;-0.39;78.22
75190;HTU21D;69198;44.694;37.790;2024-01-30T02:13:31;-0.39;77.51
75190;HTU21D;69198;44.694;37.790;2024-01-30T02:14:32;-0.44;77.20
75190;HTU21D;69198;44.694;37.790;2024-01-30T02:15:33;-0.43;77.89
75190;HTU21D;69198;44.694;37.790;2024-01-30T02:16:34;-0.43;78.36
75190;HTU21D;69198;44.694;37.790;2024-01-30T02:17:36;-0.40;78.29
75190;HTU21D;69198;44.694;37.790;2024-01-30T02:18:37;-0.37;77.81
75190;HTU21D;69198;44.694;37.790;2024-01-30T02:19:52;-0.44;78.32
75190;HTU21D;69198;44.694;37.790;2024-01-30T02:20:56;-0.41;78.85
75190;HTU21D;69198;44.694;37.790;2024-01-30T02:21:59;-0.43;77.79
75190;HTU21D;69198;44.694;37.790;2024-01-30T02:23:01;-0.49;77.92
75190;HTU21D;69198;44.694;37.790;2024-01-30T02:24:03;-0.47;79.28
75190;HTU21D;69198;44.694;37.790;2024-01-30T02:25:04;-0.40;79.66
75190;HTU21D;69198;44.694;37.790;2024-01-30T02:26:05;-0.45;78.08
75190;HTU21D;69198;44.694;37.790;2024-01-30T02:27:06;-0.47;78.85
75190;HTU21D;69198;44.694;37.790;2024-01-30T02:28:07;-0.46;79.24
75190;HTU21D;69198;44.694;37.790;2024-01-30T02:29:08;-0.47;79.23
75190;HTU21D;69198;44.694;37.790;2024-01-30T02:30:09;-0.49;78.41
75190;HTU21D;69198;44.694;37.790;2024-01-30T02:31:11;-0.53;78.37
75190;HTU21D;69198;44.694;37.790;2024-01-30T02:32:11;-0.50;78.58
75190;HTU21D;69198;44.694;37.790;2024-01-30T02:33:13;-0.55;77.82
75190;HTU21D;69198;44.694;37.790;2024-01-30T02:34:14;-0.50;78.79
75190;HTU21D;69198;44.694;37.790;2024-01-30T02:35:15;-0.49;77.67
75190;HTU21D;69198;44.694;37.790;2024-01-30T02:36:16;-0.53;77.40
75190;HTU21D;69198;44.694;37.790;2024-01-30T02:37:17;-0.53;77.92
75190;HTU21D;69198;44.694;37.790;2024-01-30T02:38:18;-0.42;77.07
75190;HTU21D;69198;44.694;37.790;2024-01-30T02:39:19;-0.40;74.99
75190;HTU21D;69198;44.694;37.790;2024-01-30T02:40:20;-0.49;75.14
75190;HTU21D;69198;44.694;37.790;2024-01-30T02:41:21;-0.54;75.30
75190;HTU21D;69198;44.694;37.790;2024-01-30T02:42:22;-0.54;75.11
75190;HTU21D;69198;44.694;37.790;2024-01-30T02:43:23;-0.52;76.66
75190;HTU21D;69198;44.694;37.790;2024-01-30T02:44:24;-0.51;76.49
75190;HTU21D;69198;44.694;37.790;2024-01-30T02:45:25;-0.55;77.15
75190;HTU21D;69198;44.694;37.790;2024-01-30T02:46:26;-0.59;76.95
75190;HTU21D;69198;44.694;37.790;2024-01-30T02:47:27;-0.59;77.27
75190;HTU21D;69198;44.694;37.790;2024-01-30T02:48:28;-0.58;78.20
75190;HTU21D;69198;44.694;37.790;2024-01-30T02:49:29;-0.56;77.95
75190;HTU21D;69198;44.694;37.790;2024-01-30T02:50:30;-0.56;77.11
75190;HTU21D;69198;44.694;37.790;2024-01-30T02:51:31;-0.56;77.14
75190;HTU21D;69198;44.694;37.790;2024-01-30T02:52:32;-0.54;76.84
75190;HTU21D;69198;44.694;37.790;2024-01-30T02:53:33;-0.56;76.90
75190;HTU21D;69198;44.694;37.790;2024-01-30T02:54:34;-0.50;77.11
75190;HTU21D;69198;44.694;37.790;2024-01-30T02:55:35;-0.46;77.05
75190;HTU21D;69198;44.694;37.790;2024-01-30T02:56:36;-0.42;77.67
75190;HTU21D;69198;44.694;37.790;2024-01-30T02:57:37;-0.40;76.28
75190;HTU21D;69198;44.694;37.790;2024-01-30T02:58:39;-0.43;76.02
75190;HTU21D;69198;44.694;37.790;2024-01-30T02:59:40;-0.44;76.24
75190;HTU21D;69198;44.694;37.790;2024-01-30T03:00:41;-0.41;77.28
75190;HTU21D;69198;44.694;37.790;2024-01-30T03:01:43;-0.42;77.54
75190;HTU21D;69198;44.694;37.790;2024-01-30T03:02:44;-0.44;77.54
75190;HTU21D;69198;44.694;37.790;2024-01-30T03:03:45;-0.49;77.66
75190;HTU21D;69198;44.694;37.790;2024-01-30T03:04:46;-0.46;77.16
75190;HTU21D;69198;44.694;37.790;2024-01-30T03:05:47;-0.40;77.43
75190;HTU21D;69198;44.694;37.790;2024-01-30T03:06:48;-0.41;76.47
75190;HTU21D;69198;44.694;37.790;2024-01-30T03:07:49;-0.47;75.83
75190;HTU21D;69198;44.694;37.790;2024-01-30T03:08:50;-0.41;76.78
75190;HTU21D;69198;44.694;37.790;2024-01-30T03:09:51;-0.40;75.78
75190;HTU21D;69198;44.694;37.790;2024-01-30T03:10:53;-0.46;75.37
75190;HTU21D;69198;44.694;37.790;2024-01-30T03:11:54;-0.52;75.74
75190;HTU21D;69198;44.694;37.790;2024-01-30T03:12:55;-0.49;76.13
75190;HTU21D;69198;44.694;37.790;2024-01-30T03:13:56;-0.44;76.63
75190;HTU21D;69198;44.694;37.790;2024-01-30T03:14:57;-0.45;75.87
75190;HTU21D;69198;44.694;37.790;2024-01-30T03:15:57;-0.41;75.45
75190;HTU21D;69198;44.694;37.790;2024-01-30T03:16:58;-0.39;75.62
75190;HTU21D;69198;44.694;37.790;2024-01-30T03:17:59;-0.40;75.60
75190;HTU21D;69198;44.694;37.790;2024-01-30T03:19:00;-0.42;75.48
75190;HTU21D;69198;44.694;37.790;2024-01-30T03:20:04;-0.41;76.63
75190;HTU21D;69198;44.694;37.790;2024-01-30T03:21:05;-0.35;76.47
75190;HTU21D;69198;44.694;37.790;2024-01-30T03:22:06;-0.38;75.50
75190;HTU21D;69198;44.694;37.790;2024-01-30T03:23:07;-0.41;76.48
75190;HTU21D;69198;44.694;37.790;2024-01-30T03:24:08;-0.42;77.22
75190;HTU21D;69198;44.694;37.790;2024-01-30T03:25:09;-0.39;77.60
75190;HTU21D;69198;44.694;37.790;2024-01-30T03:26:10;-0.39;77.52
75190;HTU21D;69198;44.694;37.790;2024-01-30T03:27:13;-0.43;76.98
75190;HTU21D;69198;44.694;37.790;2024-01-30T03:28:14;-0.47;77.16
75190;HTU21D;69198;44.694;37.790;2024-01-30T03:29:15;-0.50;77.72
75190;HTU21D;69198;44.694;37.790;2024-01-30T03:30:16;-0.47;77.08
75190;HTU21D;69198;44.694;37.790;2024-01-30T03:31:17;-0.54;76.86
75190;HTU21D;69198;44.694;37.790;2024-01-30T03:32:18;-0.54;77.84
75190;HTU21D;69198;44.694;37.790;2024-01-30T03:33:19;-0.57;77.11
75190;HTU21D;69198;44.694;37.790;2024-01-30T03:34:20;-0.60;77.65
75190;HTU21D;69198;44.694;37.790;2024-01-30T03:35:21;-0.64;77.78
75190;HTU21D;69198;44.694;37.790;2024-01-30T03:36:22;-0.60;78.20
75190;HTU21D;69198;44.694;37.790;2024-01-30T03:37:23;-0.60;78.48
75190;HTU21D;69198;44.694;37.790;2024-01-30T03:38:24;-0.60;78.01
75190;HTU21D;69198;44.694;37.790;2024-01-30T03:39:25;-0.70;77.71
75190;HTU21D;69198;44.694;37.790;2024-01-30T03:40:26;-0.67;78.27
75190;HTU21D;69198;44.694;37.790;2024-01-30T03:41:27;-0.68;77.97
75190;HTU21D;69198;44.694;37.790;2024-01-30T03:42:28;-0.64;77.60
75190;HTU21D;69198;44.694;37.790;2024-01-30T03:43:29;-0.70;77.43
75190;HTU21D;69198;44.694;37.790;2024-01-30T03:44:30;-0.69;77.88
75190;HTU21D;69198;44.694;37.790;2024-01-30T03:45:31;-0.75;77.72
75190;HTU21D;69198;44.694;37.790;2024-01-30T03:46:32;-0.76;78.65
75190;HTU21D;69198;44.694;37.790;2024-01-30T03:47:33;-0.75;79.40
75190;HTU21D;69198;44.694;37.790;2024-01-30T03:48:34;-0.75;79.91
75190;HTU21D;69198;44.694;37.790;2024-01-30T03:49:35;-0.70;79.78
75190;HTU21D;69198;44.694;37.790;2024-01-30T03:50:36;-0.79;78.69
75190;HTU21D;69198;44.694;37.790;2024-01-30T03:51:37;-0.80;79.62
75190;HTU21D;69198;44.694;37.790;2024-01-30T03:52:38;-0.76;79.60
75190;HTU21D;69198;44.694;37.790;2024-01-30T03:53:40;-0.75;79.27
75190;HTU21D;69198;44.694;37.790;2024-01-30T03:54:41;-0.76;78.03
75190;HTU21D;69198;44.694;37.790;2024-01-30T03:55:42;-0.80;77.51
75190;HTU21D;69198;44.694;37.790;2024-01-30T03:56:43;-0.79;79.06
75190;HTU21D;69198;44.694;37.790;2024-01-30T03:57:44;-0.83;78.35
75190;HTU21D;69198;44.694;37.790;2024-01-30T03:58:46;-0.83;78.78
75190;HTU21D;69198;44.694;37.790;2024-01-30T03:59:46;-0.83;78.82
75190;HTU21D;69198;44.694;37.790;2024-01-30T04:00:47;-0.81;78.97
75190;HTU21D;69198;44.694;37.790;2024-01-30T04:01:48;-0.73;77.78
75190;HTU21D;69198;44.694;37.790;2024-01-30T04:02:49;-0.75;76.57
75190;HTU21D;69198;44.694;37.790;2024-01-30T04:03:51;-0.80;77.12
75190;HTU21D;69198;44.694;37.790;2024-01-30T04:04:52;-0.77;77.27
75190;HTU21D;69198;44.694;37.790;2024-01-30T04:05:53;-0.81;76.98
75190;HTU21D;69198;44.694;37.790;2024-01-30T04:06:54;-0.76;77.88
75190;HTU21D;69198;44.694;37.790;2024-01-30T04:07:55;-0.68;79.82
75190;HTU21D;69198;44.694;37.790;2024-01-30T04:08:56;-0.67;78.64
75190;HTU21D;69198;44.694;37.790;2024-01-30T04:09:57;-0.69;78.38
75190;HTU21D;69198;44.694;37.790;2024-01-30T04:10:58;-0.70;78.19
75190;HTU21D;69198;44.694;37.790;2024-01-30T04:11:59;-0.67;77.37
75190;HTU21D;69198;44.694;37.790;2024-01-30T04:13:00;-0.71;76.87
75190;HTU21D;69198;44.694;37.790;2024-01-30T04:14:01;-0.69;77.57
75190;HTU21D;69198;44.694;37.790;2024-01-30T04:15:03;-0.66;77.84
75190;HTU21D;69198;44.694;37.790;2024-01-30T04:16:04;-0.66;77.81
75190;HTU21D;69198;44.694;37.790;2024-01-30T04:17:06;-0.61;77.11
75190;HTU21D;69198;44.694;37.790;2024-01-30T04:18:06;-0.60;77.37
75190;HTU21D;69198;44.694;37.790;2024-01-30T04:19:07;-0.61;77.57
75190;HTU21D;69198;44.694;37.790;2024-01-30T04:20:16;-0.57;77.51
75190;HTU21D;69198;44.694;37.790;2024-01-30T04:21:17;-0.59;77.68
75190;HTU21D;69198;44.694;37.790;2024-01-30T04:22:18;-0.56;76.91
75190;HTU21D;69198;44.694;37.790;2024-01-30T04:23:19;-0.62;77.18
75190;HTU21D;69198;44.694;37.790;2024-01-30T04:24:20;-0.56;77.27
75190;HTU21D;69198;44.694;37.790;2024-01-30T04:25:21;-0.56;77.01
75190;HTU21D;69198;44.694;37.790;2024-01-30T04:26:22;-0.52;77.47
75190;HTU21D;69198;44.694;37.790;2024-01-30T04:27:23;-0.52;77.49
75190;HTU21D;69198;44.694;37.790;2024-01-30T04:28:24;-0.45;77.58
75190;HTU21D;69198;44.694;37.790;2024-01-30T04:29:25;-0.42;75.90
75190;HTU21D;69198;44.694;37.790;2024-01-30T04:30:26;-0.46;74.97
75190;HTU21D;69198;44.694;37.790;2024-01-30T04:31:27;-0.42;75.98
75190;HTU21D;69198;44.694;37.790;2024-01-30T04:32:27;-0.39;74.22
75190;HTU21D;69198;44.694;37.790;2024-01-30T04:33:28;-0.40;75.03
75190;HTU21D;69198;44.694;37.790;2024-01-30T04:34:29;-0.39;75.71
75190;HTU21D;69198;44.694;37.790;2024-01-30T04:35:30;-0.39;75.89
75190;HTU21D;69198;44.694;37.790;2024-01-30T04:36:31;-0.41;76.28
75190;HTU21D;69198;44.694;37.790;2024-01-30T04:37:32;-0.40;75.77
75190;HTU21D;69198;44.694;37.790;2024-01-30T04:38:33;-0.34;76.30
75190;HTU21D;69198;44.694;37.790;2024-01-30T04:39:34;-0.38;75.15
75190;HTU21D;69198;44.694;37.790;2024-01-30T04:40:35;-0.35;75.21
75190;HTU21D;69198;44.694;37.790;2024-01-30T04:41:36;-0.31;75.17
75190;HTU21D;69198;44.694;37.790;2024-01-30T04:42:37;-0.29;75.65
75190;HTU21D;69198;44.694;37.790;2024-01-30T04:43:38;-0.28;74.19
75190;HTU21D;69198;44.694;37.790;2024-01-30T04:44:39;-0.27;75.04
75190;HTU21D;69198;44.694;37.790;2024-01-30T04:45:40;-0.23;75.45
75190;HTU21D;69198;44.694;37.790;2024-01-30T04:46:41;-0.27;74.97
75190;HTU21D;69198;44.694;37.790;2024-01-30T04:47:42;-0.28;74.04
75190;HTU21D;69198;44.694;37.790;2024-01-30T04:48:43;-0.28;74.35
75190;HTU21D;69198;44.694;37.790;2024-01-30T04:49:44;-0.29;73.22
75190;HTU21D;69198;44.694;37.790;2024-01-30T04:50:45;-0.30;73.67
75190;HTU21D;69198;44.694;37.790;2024-01-30T04:51:46;-0.27;74.44
75190;HTU21D;69198;44.694;37.790;2024-01-30T04:52:47;-0.23;75.02
75190;HTU21D;69198;44.694;37.790;2024-01-30T04:53:48;-0.22;73.94
75190;HTU21D;69198;44.694;37.790;2024-01-30T04:54:49;-0.22;74.19
75190;HTU21D;69198;44.694;37.790;2024-01-30T04:55:50;-0.17;74.99
75190;HTU21D;69198;44.694;37.790;2024-01-30T04:56:51;-0.12;74.12
75190;HTU21D;69198;44.694;37.790;2024-01-30T04:57:52;-0.11;74.57
75190;HTU21D;69198;44.694;37.790;2024-01-30T04:58:53;-0.09;74.89
75190;HTU21D;69198;44.694;37.790;2024-01-30T04:59:54;-0.06;73.75
75190;HTU21D;69198;44.694;37.790;2024-01-30T05:00:55;-0.05;72.74
75190;HTU21D;69198;44.694;37.790;2024-01-30T05:01:56;-0.01;73.90
75190;HTU21D;69198;44.694;37.790;2024-01-30T05:02:57;0.12;74.07
75190;HTU21D;69198;44.694;37.790;2024-01-30T05:03:58;0.20;72.12
75190;HTU21D;69198;44.694;37.790;2024-01-30T05:04:59;0.25;71.84
75190;HTU21D;69198;44.694;37.790;2024-01-30T05:06:00;0.36;72.15
75190;HTU21D;69198;44.694;37.790;2024-01-30T05:07:01;0.44;71.63
75190;HTU21D;69198;44.694;37.790;2024-01-30T05:08:02;0.59;72.22
75190;HTU21D;69198;44.694;37.790;2024-01-30T05:09:03;0.71;69.04
75190;HTU21D;69198;44.694;37.790;2024-01-30T05:10:07;0.78;69.94
75190;HTU21D;69198;44.694;37.790;2024-01-30T05:11:09;0.89;70.10
75190;HTU21D;69198;44.694;37.790;2024-01-30T05:12:10;0.98;68.55
75190;HTU21D;69198;44.694;37.790;2024-01-30T05:13:11;1.01;69.11
75190;HTU21D;69198;44.694;37.790;2024-01-30T05:14:14;1.06;69.38
75190;HTU21D;69198;44.694;37.790;2024-01-30T05:15:15;1.08;69.11
75190;HTU21D;69198;44.694;37.790;2024-01-30T05:16:16;1.01;68.98
75190;HTU21D;69198;44.694;37.790;2024-01-30T05:17:18;0.94;68.63
75190;HTU21D;69198;44.694;37.790;2024-01-30T05:18:19;1.02;69.92
75190;HTU21D;69198;44.694;37.790;2024-01-30T05:19:20;1.16;68.88
75190;HTU21D;69198;44.694;37.790;2024-01-30T05:20:23;1.23;67.75
75190;HTU21D;69198;44.694;37.790;2024-01-30T05:21:25;1.32;67.43
75190;HTU21D;69198;44.694;37.790;2024-01-30T05:22:26;1.45;68.49
75190;HTU21D;69198;44.694;37.790;2024-01-30T05:23:26;1.54;68.07
75190;HTU21D;69198;44.694;37.790;2024-01-30T05:24:27;1.63;68.04
75190;HTU21D;69198;44.694;37.790;2024-01-30T05:25:29;1.72;68.39
75190;HTU21D;69198;44.694;37.790;2024-01-30T05:26:30;1.73;67.10
75190;HTU21D;69198;44.694;37.790;2024-01-30T05:27:31;1.71;67.54
75190;HTU21D;69198;44.694;37.790;2024-01-30T05:28:32;1.67;66.70
75190;HTU21D;69198;44.694;37.790;2024-01-30T05:29:33;1.73;67.48
75190;HTU21D;69198;44.694;37.790;2024-01-30T05:30:34;1.90;65.60
75190;HTU21D;69198;44.694;37.790;2024-01-30T05:31:35;1.90;65.28
75190;HTU21D;69198;44.694;37.790;2024-01-30T05:32:36;2.00;66.14
75190;HTU21D;69198;44.694;37.790;2024-01-30T05:33:37;2.09;65.24
75190;HTU21D;69198;44.694;37.790;2024-01-30T05:34:38;2.13;64.76
75190;HTU21D;69198;44.694;37.790;2024-01-30T05:35:39;2.06;63.96
75190;HTU21D;69198;44.694;37.790;2024-01-30T05:36:40;2.03;65.01
75190;HTU21D;69198;44.694;37.790;2024-01-30T05:37:41;2.10;65.25
75190;HTU21D;69198;44.694;37.790;2024-01-30T05:38:42;2.17;64.72
75190;HTU21D;69198;44.694;37.790;2024-01-30T05:39:43;2.27;64.74
75190;HTU21D;69198;44.694;37.790;2024-01-30T05:40:44;2.36;62.40
75190;HTU21D;69198;44.694;37.790;2024-01-30T05:41:45;2.35;62.37
75190;HTU21D;69198;44.694;37.790;2024-01-30T05:42:46;2.41;62.82
75190;HTU21D;69198;44.694;37.790;2024-01-30T05:43:47;2.54;62.60
75190;HTU21D;69198;44.694;37.790;2024-01-30T05:44:48;2.66;61.85
75190;HTU21D;69198;44.694;37.790;2024-01-30T05:45:49;2.73;62.28
75190;HTU21D;69198;44.694;37.790;2024-01-30T05:46:51;2.83;62.53
75190;HTU21D;69198;44.694;37.790;2024-01-30T05:47:52;2.89;62.99
75190;HTU21D;69198;44.694;37.790;2024-01-30T05:48:53;2.96;61.67
75190;HTU21D;69198;44.694;37.790;2024-01-30T05:49:54;3.05;62.11
75190;HTU21D;69198;44.694;37.790;2024-01-30T05:50:55;3.09;60.83
75190;HTU21D;69198;44.694;37.790;2024-01-30T05:51:57;3.11;61.81
75190;HTU21D;69198;44.694;37.790;2024-01-30T05:52:58;3.16;61.68
75190;HTU21D;69198;44.694;37.790;2024-01-30T05:53:59;3.32;60.51
75190;HTU21D;69198;44.694;37.790;2024-01-30T05:55:00;3.42;61.73
75190;HTU21D;69198;44.694;37.790;2024-01-30T05:56:04;3.60;61.42
75190;HTU21D;69198;44.694;37.790;2024-01-30T05:57:05;3.68;58.87
75190;HTU21D;69198;44.694;37.790;2024-01-30T05:58:06;3.75;59.52
75190;HTU21D;69198;44.694;37.790;2024-01-30T05:59:07;3.83;59.49
75190;HTU21D;69198;44.694;37.790;2024-01-30T06:00:08;3.90;58.89
75190;HTU21D;69198;44.694;37.790;2024-01-30T06:01:09;3.98;58.65
75190;HTU21D;69198;44.694;37.790;2024-01-30T06:02:11;4.09;58.61
75190;HTU21D;69198;44.694;37.790;2024-01-30T06:03:12;4.20;56.98
75190;HTU21D;69198;44.694;37.790;2024-01-30T06:04:13;4.20;55.84
75190;HTU21D;69198;44.694;37.790;2024-01-30T06:05:14;4.26;55.66
75190;HTU21D;69198;44.694;37.790;2024-01-30T06:06:15;4.33;57.39
75190;HTU21D;69198;44.694;37.790;2024-01-30T06:07:16;4.45;56.11
75190;HTU21D;69198;44.694;37.790;2024-01-30T06:08:18;4.52;56.71
75190;HTU21D;69198;44.694;37.790;2024-01-30T06:09:19;4.65;55.50
75190;HTU21D;69198;44.694;37.790;2024-01-30T06:10:20;4.76;55.44
75190;HTU21D;69198;44.694;37.790;2024-01-30T06:11:21;4.80;54.46
75190;HTU21D;69198;44.694;37.790;2024-01-30T06:12:22;4.79;53.95
75190;HTU21D;69198;44.694;37.790;2024-01-30T06:13:23;4.75;54.71
75190;HTU21D;69198;44.694;37.790;2024-01-30T06:14:24;4.73;54.18
75190;HTU21D;69198;44.694;37.790;2024-01-30T06:15:25;4.72;54.26
75190;HTU21D;69198;44.694;37.790;2024-01-30T06:16:26;4.73;55.42